Old Greenwich, Connecticut
Current Conditions -  °F | °C
As of 8:56 AM on Sunday 23 Nov 2014 (Local Time) from KHPN Reporting Station
Broken Clouds Broken Clouds  
Wind Chill: 42°   Ceiling: 8000
Heat Index: 44°   Visibility: 10mi
Dew Point: 21°   Wind: 5mph
Humidity: 40%   Direction: NA
Pressure: 30.18"   Gusts: NA
Location:  41.02°N, 73.57°W
Report Text: KHPN 231356Z VRB04KT 10SM BKN080 07/M06 A3018 RMK AO2 SLP225 T00671061
Loading
Personal Weather Stations






























Interactive Weather Map New forecast layout! Learn more

10-Day Weather Forecast

Advertisements
Track Severe Weather on mobile